sensor_id;sensor_type;location;lat;lon;timestamp;pressure;altitude;pressure_sealevel;temperature;humidity
9740;BME280;4909;42.680;26.324;2023-03-14T00:01:21;99007.00;;;5.58;56.57
9740;BME280;4909;42.680;26.324;2023-03-14T00:03:48;98968.72;;;5.40;56.44
9740;BME280;4909;42.680;26.324;2023-03-14T00:06:15;98990.59;;;5.45;56.66
9740;BME280;4909;42.680;26.324;2023-03-14T00:08:43;98992.22;;;5.51;56.98
9740;BME280;4909;42.680;26.324;2023-03-14T00:11:13;98994.09;;;5.44;56.49
9740;BME280;4909;42.680;26.324;2023-03-14T00:13:41;98997.97;;;5.25;57.23
9740;BME280;4909;42.680;26.324;2023-03-14T00:16:09;98997.75;;;5.37;57.25
9740;BME280;4909;42.680;26.324;2023-03-14T00:18:37;98987.97;;;5.42;56.57
9740;BME280;4909;42.680;26.324;2023-03-14T00:21:05;98991.28;;;5.55;55.66
9740;BME280;4909;42.680;26.324;2023-03-14T00:23:35;98986.22;;;5.43;55.83
9740;BME280;4909;42.680;26.324;2023-03-14T00:26:04;98996.13;;;5.29;55.80
9740;BME280;4909;42.680;26.324;2023-03-14T00:28:32;98994.28;;;5.34;56.14
9740;BME280;4909;42.680;26.324;2023-03-14T00:31:01;98981.44;;;5.17;56.60
9740;BME280;4909;42.680;26.324;2023-03-14T00:33:28;98986.03;;;5.04;57.92
9740;BME280;4909;42.680;26.324;2023-03-14T00:35:55;98985.22;;;5.02;57.87
9740;BME280;4909;42.680;26.324;2023-03-14T00:38:23;98985.34;;;4.93;57.95
9740;BME280;4909;42.680;26.324;2023-03-14T00:40:50;98986.16;;;4.97;57.65
9740;BME280;4909;42.680;26.324;2023-03-14T00:43:17;98949.53;;;4.86;57.02
9740;BME280;4909;42.680;26.324;2023-03-14T00:45:45;98989.41;;;5.12;56.75
9740;BME280;4909;42.680;26.324;2023-03-14T00:48:12;98989.56;;;5.03;57.38
9740;BME280;4909;42.680;26.324;2023-03-14T00:50:39;98983.66;;;4.89;58.38
9740;BME280;4909;42.680;26.324;2023-03-14T00:53:06;98972.59;;;4.69;59.36
9740;BME280;4909;42.680;26.324;2023-03-14T00:55:36;98985.38;;;4.90;58.56
9740;BME280;4909;42.680;26.324;2023-03-14T00:58:03;98985.03;;;5.11;57.90
9740;BME280;4909;42.680;26.324;2023-03-14T01:00:30;98980.41;;;5.27;56.57
9740;BME280;4909;42.680;26.324;2023-03-14T01:02:58;98977.09;;;5.14;57.31
9740;BME280;4909;42.680;26.324;2023-03-14T01:05:25;98970.16;;;5.10;57.99
9740;BME280;4909;42.680;26.324;2023-03-14T01:07:51;98976.56;;;5.43;56.55
9740;BME280;4909;42.680;26.324;2023-03-14T01:10:18;98970.38;;;5.46;56.63
9740;BME280;4909;42.680;26.324;2023-03-14T01:12:46;98973.31;;;5.31;56.08
9740;BME280;4909;42.680;26.324;2023-03-14T01:15:13;98952.88;;;4.96;57.53
9740;BME280;4909;42.680;26.324;2023-03-14T01:17:40;98964.81;;;5.15;56.73
9740;BME280;4909;42.680;26.324;2023-03-14T01:20:11;98932.63;;;5.01;56.80
9740;BME280;4909;42.680;26.324;2023-03-14T01:22:38;98950.38;;;5.37;56.16
9740;BME280;4909;42.680;26.324;2023-03-14T01:25:06;98953.25;;;5.23;56.32
9740;BME280;4909;42.680;26.324;2023-03-14T01:27:34;98954.13;;;5.24;56.36
9740;BME280;4909;42.680;26.324;2023-03-14T01:30:00;98946.47;;;5.10;56.12
9740;BME280;4909;42.680;26.324;2023-03-14T01:32:27;98942.88;;;5.14;55.63
9740;BME280;4909;42.680;26.324;2023-03-14T01:34:54;98941.31;;;5.04;55.91
9740;BME280;4909;42.680;26.324;2023-03-14T01:37:22;98942.09;;;5.09;55.44
9740;BME280;4909;42.680;26.324;2023-03-14T01:39:49;98928.13;;;5.07;56.41
9740;BME280;4909;42.680;26.324;2023-03-14T01:42:16;98943.59;;;5.24;55.11
9740;BME280;4909;42.680;26.324;2023-03-14T01:44:48;98943.94;;;5.04;56.26
9740;BME280;4909;42.680;26.324;2023-03-14T01:47:15;98941.72;;;4.81;56.70
9740;BME280;4909;42.680;26.324;2023-03-14T01:49:42;98941.78;;;4.78;56.94
9740;BME280;4909;42.680;26.324;2023-03-14T01:52:11;98941.56;;;4.89;56.52
9740;BME280;4909;42.680;26.324;2023-03-14T01:54:42;98929.00;;;5.06;57.38
9740;BME280;4909;42.680;26.324;2023-03-14T01:57:14;98926.44;;;5.03;55.79
9740;BME280;4909;42.680;26.324;2023-03-14T01:59:46;98937.34;;;4.80;56.45
9740;BME280;4909;42.680;26.324;2023-03-14T02:02:15;98929.97;;;4.49;57.81
9740;BME280;4909;42.680;26.324;2023-03-14T02:04:42;98930.63;;;4.63;56.69
9740;BME280;4909;42.680;26.324;2023-03-14T02:07:13;98933.25;;;4.64;56.31
9740;BME280;4909;42.680;26.324;2023-03-14T02:09:44;98924.81;;;4.43;56.86
9740;BME280;4909;42.680;26.324;2023-03-14T02:12:14;98919.22;;;4.64;56.91
9740;BME280;4909;42.680;26.324;2023-03-14T02:14:42;98921.44;;;4.88;56.13
9740;BME280;4909;42.680;26.324;2023-03-14T02:17:14;98891.03;;;4.72;56.43
9740;BME280;4909;42.680;26.324;2023-03-14T02:19:58;98914.53;;;4.81;55.98
9740;BME280;4909;42.680;26.324;2023-03-14T02:22:31;98920.09;;;4.64;55.24
9740;BME280;4909;42.680;26.324;2023-03-14T02:25:04;98926.19;;;4.65;55.67
9740;BME280;4909;42.680;26.324;2023-03-14T02:27:34;98916.03;;;4.44;55.90
9740;BME280;4909;42.680;26.324;2023-03-14T02:30:04;98918.38;;;4.60;55.76
9740;BME280;4909;42.680;26.324;2023-03-14T02:32:33;98928.31;;;4.97;55.56
9740;BME280;4909;42.680;26.324;2023-03-14T02:35:04;98922.63;;;5.19;55.47
9740;BME280;4909;42.680;26.324;2023-03-14T02:37:36;98919.13;;;5.19;54.83
9740;BME280;4909;42.680;26.324;2023-03-14T02:40:05;98905.31;;;5.08;53.55
9740;BME280;4909;42.680;26.324;2023-03-14T02:42:34;98919.78;;;5.30;52.22
9740;BME280;4909;42.680;26.324;2023-03-14T02:45:35;98919.91;;;5.24;52.57
9740;BME280;4909;42.680;26.324;2023-03-14T02:48:05;98913.13;;;5.12;51.51
9740;BME280;4909;42.680;26.324;2023-03-14T02:50:34;98908.41;;;4.80;51.19
9740;BME280;4909;42.680;26.324;2023-03-14T02:53:01;98912.72;;;4.85;51.23
9740;BME280;4909;42.680;26.324;2023-03-14T02:55:27;98908.13;;;4.97;51.92
9740;BME280;4909;42.680;26.324;2023-03-14T02:57:56;98911.38;;;5.11;50.77
9740;BME280;4909;42.680;26.324;2023-03-14T03:00:23;98869.81;;;4.84;51.76
9740;BME280;4909;42.680;26.324;2023-03-14T03:02:50;98908.31;;;4.87;53.54
9740;BME280;4909;42.680;26.324;2023-03-14T03:05:17;98901.53;;;4.73;54.29
9740;BME280;4909;42.680;26.324;2023-03-14T03:07:44;98902.59;;;4.63;54.75
9740;BME280;4909;42.680;26.324;2023-03-14T03:10:11;98902.03;;;4.45;55.62
9740;BME280;4909;42.680;26.324;2023-03-14T03:12:38;98898.28;;;4.58;55.53
9740;BME280;4909;42.680;26.324;2023-03-14T03:15:07;98899.31;;;4.49;54.44
9740;BME280;4909;42.680;26.324;2023-03-14T03:17:34;98896.41;;;4.66;53.35
9740;BME280;4909;42.680;26.324;2023-03-14T03:20:00;98901.09;;;4.47;53.66
9740;BME280;4909;42.680;26.324;2023-03-14T03:22:28;98895.81;;;4.47;54.08
9740;BME280;4909;42.680;26.324;2023-03-14T03:24:55;98897.00;;;4.81;51.58
9740;BME280;4909;42.680;26.324;2023-03-14T03:27:22;98897.47;;;5.05;51.32
9740;BME280;4909;42.680;26.324;2023-03-14T03:29:49;98893.84;;;5.10;51.10
9740;BME280;4909;42.680;26.324;2023-03-14T03:32:17;98886.94;;;5.05;50.21
9740;BME280;4909;42.680;26.324;2023-03-14T03:34:43;98898.47;;;4.98;48.13
9740;BME280;4909;42.680;26.324;2023-03-14T03:37:10;98899.19;;;5.06;47.07
9740;BME280;4909;42.680;26.324;2023-03-14T03:39:37;98884.72;;;4.82;46.88
9740;BME280;4909;42.680;26.324;2023-03-14T03:42:04;98898.81;;;4.78;47.82
9740;BME280;4909;42.680;26.324;2023-03-14T03:44:30;98886.72;;;4.68;48.69
9740;BME280;4909;42.680;26.324;2023-03-14T03:46:57;98880.47;;;4.75;47.98
9740;BME280;4909;42.680;26.324;2023-03-14T03:49:28;98889.91;;;4.87;48.39
9740;BME280;4909;42.680;26.324;2023-03-14T03:51:55;98897.53;;;5.02;48.23
9740;BME280;4909;42.680;26.324;2023-03-14T03:54:22;98898.47;;;4.98;46.06
9740;BME280;4909;42.680;26.324;2023-03-14T03:56:48;98891.59;;;4.91;46.14
9740;BME280;4909;42.680;26.324;2023-03-14T03:59:15;98888.47;;;5.16;45.66
9740;BME280;4909;42.680;26.324;2023-03-14T04:01:42;98890.91;;;5.27;44.47
9740;BME280;4909;42.680;26.324;2023-03-14T04:04:09;98890.31;;;5.13;45.15
9740;BME280;4909;42.680;26.324;2023-03-14T04:06:38;98896.03;;;5.35;45.56
9740;BME280;4909;42.680;26.324;2023-03-14T04:09:05;98891.41;;;5.46;47.20
9740;BME280;4909;42.680;26.324;2023-03-14T04:11:32;98893.19;;;5.44;49.40
9740;BME280;4909;42.680;26.324;2023-03-14T04:13:59;98885.03;;;5.57;48.61
9740;BME280;4909;42.680;26.324;2023-03-14T04:16:26;98872.81;;;5.55;48.57
9740;BME280;4909;42.680;26.324;2023-03-14T04:18:53;98878.75;;;5.63;47.33
9740;BME280;4909;42.680;26.324;2023-03-14T04:21:19;98883.31;;;5.56;47.05
9740;BME280;4909;42.680;26.324;2023-03-14T04:23:48;98884.63;;;5.33;46.68
9740;BME280;4909;42.680;26.324;2023-03-14T04:26:15;98883.53;;;5.00;46.30
9740;BME280;4909;42.680;26.324;2023-03-14T04:28:41;98884.22;;;4.60;45.09
9740;BME280;4909;42.680;26.324;2023-03-14T04:31:09;98881.72;;;4.53;45.13
9740;BME280;4909;42.680;26.324;2023-03-14T04:33:36;98879.34;;;4.37;45.69
9740;BME280;4909;42.680;26.324;2023-03-14T04:36:04;98875.38;;;4.66;46.18
9740;BME280;4909;42.680;26.324;2023-03-14T04:38:31;98879.66;;;4.70;46.35
9740;BME280;4909;42.680;26.324;2023-03-14T04:41:00;98880.59;;;4.69;48.31
9740;BME280;4909;42.680;26.324;2023-03-14T04:43:27;98887.81;;;5.04;47.92
9740;BME280;4909;42.680;26.324;2023-03-14T04:45:54;98878.84;;;5.17;47.74
9740;BME280;4909;42.680;26.324;2023-03-14T04:48:21;98883.03;;;5.27;47.74
9740;BME280;4909;42.680;26.324;2023-03-14T04:50:49;98879.22;;;5.42;46.39
9740;BME280;4909;42.680;26.324;2023-03-14T04:53:17;98871.97;;;5.53;46.12
9740;BME280;4909;42.680;26.324;2023-03-14T04:55:47;98875.56;;;5.49;46.56
9740;BME280;4909;42.680;26.324;2023-03-14T04:58:16;98880.81;;;5.49;44.43
9740;BME280;4909;42.680;26.324;2023-03-14T05:01:02;98872.41;;;5.32;43.18
9740;BME280;4909;42.680;26.324;2023-03-14T05:03:29;98874.72;;;5.02;43.71
9740;BME280;4909;42.680;26.324;2023-03-14T05:05:56;98872.44;;;5.30;41.97
9740;BME280;4909;42.680;26.324;2023-03-14T05:08:24;98867.56;;;5.53;42.27
9740;BME280;4909;42.680;26.324;2023-03-14T05:10:54;98868.00;;;5.74;42.97
9740;BME280;4909;42.680;26.324;2023-03-14T05:13:22;98865.09;;;5.87;42.25
9740;BME280;4909;42.680;26.324;2023-03-14T05:15:49;98868.19;;;6.06;41.41
9740;BME280;4909;42.680;26.324;2023-03-14T05:18:16;98870.47;;;6.21;41.55
9740;BME280;4909;42.680;26.324;2023-03-14T05:20:43;98867.41;;;6.02;40.90
9740;BME280;4909;42.680;26.324;2023-03-14T05:23:10;98875.03;;;5.73;41.07
9740;BME280;4909;42.680;26.324;2023-03-14T05:25:37;98871.03;;;5.97;40.92
9740;BME280;4909;42.680;26.324;2023-03-14T05:28:04;98871.09;;;5.95;40.36
9740;BME280;4909;42.680;26.324;2023-03-14T05:30:32;98866.66;;;5.96;40.28
9740;BME280;4909;42.680;26.324;2023-03-14T05:32:59;98857.84;;;5.98;39.49
9740;BME280;4909;42.680;26.324;2023-03-14T05:35:26;98868.59;;;5.88;40.45
9740;BME280;4909;42.680;26.324;2023-03-14T05:37:52;98866.53;;;6.02;41.20
9740;BME280;4909;42.680;26.324;2023-03-14T05:40:19;98868.94;;;6.13;42.04
9740;BME280;4909;42.680;26.324;2023-03-14T05:42:46;98875.31;;;6.39;40.69
9740;BME280;4909;42.680;26.324;2023-03-14T05:45:13;98867.94;;;6.53;40.42
9740;BME280;4909;42.680;26.324;2023-03-14T05:47:41;98866.69;;;6.33;40.81
9740;BME280;4909;42.680;26.324;2023-03-14T05:50:08;98864.09;;;6.31;41.40
9740;BME280;4909;42.680;26.324;2023-03-14T05:52:35;98864.47;;;6.53;41.23
9740;BME280;4909;42.680;26.324;2023-03-14T05:55:03;98864.72;;;6.42;41.06
9740;BME280;4909;42.680;26.324;2023-03-14T05:57:29;98869.53;;;6.61;40.65
9740;BME280;4909;42.680;26.324;2023-03-14T05:59:56;98858.88;;;6.64;40.52
9740;BME280;4909;42.680;26.324;2023-03-14T06:02:23;98868.16;;;6.80;40.27
9740;BME280;4909;42.680;26.324;2023-03-14T06:04:52;98853.38;;;7.07;40.20
9740;BME280;4909;42.680;26.324;2023-03-14T06:07:18;98864.72;;;7.41;38.57
9740;BME280;4909;42.680;26.324;2023-03-14T06:09:45;98868.22;;;7.41;38.53
9740;BME280;4909;42.680;26.324;2023-03-14T06:12:12;98866.25;;;7.50;38.05
9740;BME280;4909;42.680;26.324;2023-03-14T06:14:39;98871.63;;;7.76;37.38
9740;BME280;4909;42.680;26.324;2023-03-14T06:17:05;98866.03;;;7.86;41.44
9740;BME280;4909;42.680;26.324;2023-03-14T06:19:32;98869.13;;;8.01;44.65
9740;BME280;4909;42.680;26.324;2023-03-14T06:22:00;98874.47;;;9.32;42.85
9740;BME280;4909;42.680;26.324;2023-03-14T06:24:27;98840.13;;;10.87;38.38
9740;BME280;4909;42.680;26.324;2023-03-14T06:26:54;98864.63;;;11.14;38.43
9740;BME280;4909;42.680;26.324;2023-03-14T06:29:20;98855.13;;;11.88;36.97
9740;BME280;4909;42.680;26.324;2023-03-14T06:31:47;98866.47;;;13.70;33.78
9740;BME280;4909;42.680;26.324;2023-03-14T06:34:14;98860.41;;;15.53;30.96
9740;BME280;4909;42.680;26.324;2023-03-14T06:36:41;98865.28;;;16.99;28.63
9740;BME280;4909;42.680;26.324;2023-03-14T06:39:09;98860.50;;;17.17;28.13
9740;BME280;4909;42.680;26.324;2023-03-14T06:41:38;98863.06;;;18.57;25.97
9740;BME280;4909;42.680;26.324;2023-03-14T06:44:05;98867.38;;;19.77;24.82
9740;BME280;4909;42.680;26.324;2023-03-14T06:46:31;98858.59;;;19.98;23.50
9740;BME280;4909;42.680;26.324;2023-03-14T06:48:58;98861.16;;;20.66;22.87
9740;BME280;4909;42.680;26.324;2023-03-14T06:51:25;98866.28;;;20.69;22.78
9740;BME280;4909;42.680;26.324;2023-03-14T06:53:52;98856.78;;;20.43;23.13
9740;BME280;4909;42.680;26.324;2023-03-14T06:56:20;98861.53;;;20.39;23.31
9740;BME280;4909;42.680;26.324;2023-03-14T06:58:47;98861.09;;;19.55;23.87
9740;BME280;4909;42.680;26.324;2023-03-14T07:01:20;98851.94;;;19.90;23.74
9740;BME280;4909;42.680;26.324;2023-03-14T07:03:48;98858.94;;;20.71;22.77
9740;BME280;4909;42.680;26.324;2023-03-14T07:06:14;98861.56;;;20.82;22.58
9740;BME280;4909;42.680;26.324;2023-03-14T07:08:41;98854.03;;;22.02;21.43
9740;BME280;4909;42.680;26.324;2023-03-14T07:11:08;98853.50;;;21.87;21.49
9740;BME280;4909;42.680;26.324;2023-03-14T07:13:37;98848.75;;;22.31;21.20
9740;BME280;4909;42.680;26.324;2023-03-14T07:16:05;98826.72;;;22.05;21.47
9740;BME280;4909;42.680;26.324;2023-03-14T07:18:32;98821.97;;;23.73;20.48
9740;BME280;4909;42.680;26.324;2023-03-14T07:20:59;98846.69;;;23.51;20.35
9740;BME280;4909;42.680;26.324;2023-03-14T07:23:26;98848.09;;;23.26;20.58
9740;BME280;4909;42.680;26.324;2023-03-14T07:25:53;98843.53;;;23.36;21.09
9740;BME280;4909;42.680;26.324;2023-03-14T07:28:20;98836.94;;;22.81;21.11
9740;BME280;4909;42.680;26.324;2023-03-14T07:30:49;98839.47;;;23.89;20.33
9740;BME280;4909;42.680;26.324;2023-03-14T07:33:16;98832.41;;;23.01;20.92
9740;BME280;4909;42.680;26.324;2023-03-14T07:35:43;98843.81;;;22.36;22.01
9740;BME280;4909;42.680;26.324;2023-03-14T07:38:10;98837.81;;;22.82;21.47
9740;BME280;4909;42.680;26.324;2023-03-14T07:40:37;98836.56;;;21.12;23.14
9740;BME280;4909;42.680;26.324;2023-03-14T07:43:03;98837.22;;;21.04;23.38
9740;BME280;4909;42.680;26.324;2023-03-14T07:45:30;98840.13;;;22.06;22.75
9740;BME280;4909;42.680;26.324;2023-03-14T07:47:59;98847.28;;;21.13;23.25
9740;BME280;4909;42.680;26.324;2023-03-14T07:50:27;98837.78;;;22.72;22.42
9740;BME280;4909;42.680;26.324;2023-03-14T07:52:55;98806.03;;;23.70;21.05
9740;BME280;4909;42.680;26.324;2023-03-14T07:55:21;98818.13;;;23.76;21.22
9740;BME280;4909;42.680;26.324;2023-03-14T07:57:48;98806.78;;;20.81;24.11
9740;BME280;4909;42.680;26.324;2023-03-14T08:00:16;98825.72;;;22.36;22.98
9740;BME280;4909;42.680;26.324;2023-03-14T08:02:43;98791.97;;;21.70;23.30
9740;BME280;4909;42.680;26.324;2023-03-14T08:05:11;98812.81;;;22.09;23.14
9740;BME280;4909;42.680;26.324;2023-03-14T08:07:38;98774.41;;;22.65;22.00
9740;BME280;4909;42.680;26.324;2023-03-14T08:10:06;98810.72;;;22.72;22.09
9740;BME280;4909;42.680;26.324;2023-03-14T08:12:33;98802.75;;;22.71;22.24
9740;BME280;4909;42.680;26.324;2023-03-14T08:14:59;98807.81;;;23.89;20.94
9740;BME280;4909;42.680;26.324;2023-03-14T08:17:26;98808.59;;;25.08;19.74
9740;BME280;4909;42.680;26.324;2023-03-14T08:19:54;98804.50;;;25.83;19.08
9740;BME280;4909;42.680;26.324;2023-03-14T08:22:22;98798.88;;;26.45;18.33
9740;BME280;4909;42.680;26.324;2023-03-14T08:24:48;98797.50;;;26.41;18.25
9740;BME280;4909;42.680;26.324;2023-03-14T08:27:15;98792.88;;;25.12;19.41
9740;BME280;4909;42.680;26.324;2023-03-14T08:29:42;98799.59;;;25.08;19.44
9740;BME280;4909;42.680;26.324;2023-03-14T08:32:09;98782.00;;;25.12;19.37
9740;BME280;4909;42.680;26.324;2023-03-14T08:34:36;98780.88;;;26.18;18.55
9740;BME280;4909;42.680;26.324;2023-03-14T08:37:02;98752.44;;;24.91;19.51
9740;BME280;4909;42.680;26.324;2023-03-14T08:39:31;98766.16;;;25.25;19.27
9740;BME280;4909;42.680;26.324;2023-03-14T08:41:58;98766.97;;;25.43;19.49
9740;BME280;4909;42.680;26.324;2023-03-14T08:44:24;98761.97;;;25.74;19.12
9740;BME280;4909;42.680;26.324;2023-03-14T08:46:51;98756.44;;;25.40;19.18
9740;BME280;4909;42.680;26.324;2023-03-14T08:49:18;98750.13;;;25.40;19.43
9740;BME280;4909;42.680;26.324;2023-03-14T08:51:45;98750.47;;;24.48;20.51
9740;BME280;4909;42.680;26.324;2023-03-14T08:54:11;98756.81;;;24.39;20.58
9740;BME280;4909;42.680;26.324;2023-03-14T08:56:39;98741.88;;;25.06;19.52
9740;BME280;4909;42.680;26.324;2023-03-14T08:59:06;98753.84;;;24.50;19.95
9740;BME280;4909;42.680;26.324;2023-03-14T09:01:35;98745.50;;;24.07;20.64
9740;BME280;4909;42.680;26.324;2023-03-14T09:04:02;98741.63;;;24.19;20.34
9740;BME280;4909;42.680;26.324;2023-03-14T09:06:29;98737.19;;;23.91;20.32
9740;BME280;4909;42.680;26.324;2023-03-14T09:08:56;98730.94;;;23.15;21.02
9740;BME280;4909;42.680;26.324;2023-03-14T09:11:23;98724.41;;;23.08;21.01
9740;BME280;4909;42.680;26.324;2023-03-14T09:13:51;98736.97;;;21.81;22.51
9740;BME280;4909;42.680;26.324;2023-03-14T09:16:17;98727.03;;;21.81;23.00
9740;BME280;4909;42.680;26.324;2023-03-14T09:18:45;98729.03;;;22.19;22.07
9740;BME280;4909;42.680;26.324;2023-03-14T09:21:11;98714.97;;;21.55;22.64
9740;BME280;4909;42.680;26.324;2023-03-14T09:23:38;98710.44;;;21.25;22.98
9740;BME280;4909;42.680;26.324;2023-03-14T09:26:06;98707.53;;;20.21;24.77
9740;BME280;4909;42.680;26.324;2023-03-14T09:28:33;98708.03;;;20.58;23.23
9740;BME280;4909;42.680;26.324;2023-03-14T09:31:06;98695.88;;;18.52;25.63
9740;BME280;4909;42.680;26.324;2023-03-14T09:33:33;98688.19;;;18.24;26.16
9740;BME280;4909;42.680;26.324;2023-03-14T09:36:01;98695.63;;;17.84;27.03
9740;BME280;4909;42.680;26.324;2023-03-14T09:38:28;98680.75;;;17.91;26.70
9740;BME280;4909;42.680;26.324;2023-03-14T09:40:57;98673.72;;;17.90;26.85
9740;BME280;4909;42.680;26.324;2023-03-14T09:43:26;98674.91;;;18.34;25.90
9740;BME280;4909;42.680;26.324;2023-03-14T09:45:57;98678.47;;;18.10;26.72
9740;BME280;4909;42.680;26.324;2023-03-14T09:48:31;98675.97;;;17.22;26.79
9740;BME280;4909;42.680;26.324;2023-03-14T09:51:01;98668.88;;;16.95;27.91
9740;BME280;4909;42.680;26.324;2023-03-14T09:53:36;98667.69;;;17.37;27.88
9740;BME280;4909;42.680;26.324;2023-03-14T09:56:04;98625.94;;;17.33;27.92
9740;BME280;4909;42.680;26.324;2023-03-14T09:58:40;98666.44;;;16.92;27.68
9740;BME280;4909;42.680;26.324;2023-03-14T10:01:09;98656.00;;;16.63;28.97
9740;BME280;4909;42.680;26.324;2023-03-14T10:03:42;98658.81;;;16.47;28.57
9740;BME280;4909;42.680;26.324;2023-03-14T10:06:12;98648.66;;;15.31;30.59
9740;BME280;4909;42.680;26.324;2023-03-14T10:08:40;98652.69;;;15.38;29.96
9740;BME280;4909;42.680;26.324;2023-03-14T10:11:13;98648.53;;;16.01;29.45
9740;BME280;4909;42.680;26.324;2023-03-14T10:13:48;98643.41;;;15.57;30.14
9740;BME280;4909;42.680;26.324;2023-03-14T10:16:15;98580.63;;;14.37;31.34
9740;BME280;4909;42.680;26.324;2023-03-14T10:18:45;98634.88;;;14.96;30.88
9740;BME280;4909;42.680;26.324;2023-03-14T10:21:21;98634.84;;;14.08;33.01
9740;BME280;4909;42.680;26.324;2023-03-14T10:23:52;98622.22;;;14.25;32.09
9740;BME280;4909;42.680;26.324;2023-03-14T10:26:23;98616.28;;;14.36;31.85
9740;BME280;4909;42.680;26.324;2023-03-14T10:28:54;98612.22;;;14.73;31.55
9740;BME280;4909;42.680;26.324;2023-03-14T10:31:27;98605.25;;;15.13;30.62
9740;BME280;4909;42.680;26.324;2023-03-14T10:33:59;98602.13;;;15.47;29.89
9740;BME280;4909;42.680;26.324;2023-03-14T10:36:28;98596.34;;;15.94;29.55
9740;BME280;4909;42.680;26.324;2023-03-14T10:38:58;98601.63;;;16.08;29.51
9740;BME280;4909;42.680;26.324;2023-03-14T10:41:32;98587.22;;;16.36;28.93
9740;BME280;4909;42.680;26.324;2023-03-14T10:44:01;98593.97;;;16.42;28.74
9740;BME280;4909;42.680;26.324;2023-03-14T10:46:30;98549.09;;;16.20;27.82
9740;BME280;4909;42.680;26.324;2023-03-14T10:49:04;98585.72;;;16.20;27.52
9740;BME280;4909;42.680;26.324;2023-03-14T10:51:31;98581.78;;;16.38;27.85
9740;BME280;4909;42.680;26.324;2023-03-14T10:54:00;98580.06;;;16.49;27.30
9740;BME280;4909;42.680;26.324;2023-03-14T10:56:34;98545.13;;;16.26;27.19
9740;BME280;4909;42.680;26.324;2023-03-14T10:59:03;98568.44;;;15.31;28.42
9740;BME280;4909;42.680;26.324;2023-03-14T11:01:39;98567.28;;;15.76;28.10
9740;BME280;4909;42.680;26.324;2023-03-14T11:04:17;98551.63;;;14.59;28.54
9740;BME280;4909;42.680;26.324;2023-03-14T11:06:50;98557.91;;;15.01;26.75
9740;BME280;4909;42.680;26.324;2023-03-14T11:09:25;98545.81;;;14.95;26.61
9740;BME280;4909;42.680;26.324;2023-03-14T11:11:59;98539.25;;;15.54;25.85
9740;BME280;4909;42.680;26.324;2023-03-14T11:14:33;98534.66;;;15.30;25.27
9740;BME280;4909;42.680;26.324;2023-03-14T11:17:09;98526.81;;;15.27;26.54
9740;BME280;4909;42.680;26.324;2023-03-14T11:19:53;98512.91;;;15.75;27.53
9740;BME280;4909;42.680;26.324;2023-03-14T11:22:43;98497.94;;;15.98;26.72
9740;BME280;4909;42.680;26.324;2023-03-14T11:25:21;98492.22;;;16.17;25.78
9740;BME280;4909;42.680;26.324;2023-03-14T11:27:55;98496.59;;;16.05;25.93
9740;BME280;4909;42.680;26.324;2023-03-14T11:30:30;98478.03;;;15.89;25.78
9740;BME280;4909;42.680;26.324;2023-03-14T11:33:04;98489.94;;;15.05;26.93
9740;BME280;4909;42.680;26.324;2023-03-14T11:35:39;98442.63;;;14.38;27.92
9740;BME280;4909;42.680;26.324;2023-03-14T11:38:15;98465.97;;;14.48;28.30
9740;BME280;4909;42.680;26.324;2023-03-14T11:40:44;98466.88;;;14.90;27.84
9740;BME280;4909;42.680;26.324;2023-03-14T11:43:18;98434.69;;;15.05;28.18
9740;BME280;4909;42.680;26.324;2023-03-14T11:45:49;98452.34;;;15.47;27.64
9740;BME280;4909;42.680;26.324;2023-03-14T11:48:22;98443.19;;;15.64;26.81
9740;BME280;4909;42.680;26.324;2023-03-14T11:50:55;98450.84;;;15.83;27.16
9740;BME280;4909;42.680;26.324;2023-03-14T11:53:33;98443.88;;;15.80;26.41
9740;BME280;4909;42.680;26.324;2023-03-14T11:56:01;98434.63;;;15.59;26.86
9740;BME280;4909;42.680;26.324;2023-03-14T11:58:31;98427.38;;;15.74;26.19
9740;BME280;4909;42.680;26.324;2023-03-14T12:01:07;98417.88;;;15.43;26.77
9740;BME280;4909;42.680;26.324;2023-03-14T12:03:39;98398.16;;;15.31;26.69
9740;BME280;4909;42.680;26.324;2023-03-14T12:06:13;98366.31;;;15.28;27.24
9740;BME280;4909;42.680;26.324;2023-03-14T12:08:46;98400.75;;;15.45;28.10
9740;BME280;4909;42.680;26.324;2023-03-14T12:11:19;98396.03;;;15.36;28.59
9740;BME280;4909;42.680;26.324;2023-03-14T12:13:49;98389.50;;;15.28;27.89
9740;BME280;4909;42.680;26.324;2023-03-14T12:16:29;98388.00;;;15.23;28.20
9740;BME280;4909;42.680;26.324;2023-03-14T12:18:57;98381.16;;;15.32;29.44
9740;BME280;4909;42.680;26.324;2023-03-14T12:21:51;98371.94;;;15.63;29.70
9740;BME280;4909;42.680;26.324;2023-03-14T12:24:22;98376.63;;;15.07;29.86
9740;BME280;4909;42.680;26.324;2023-03-14T12:26:54;98368.09;;;15.15;29.82
9740;BME280;4909;42.680;26.324;2023-03-14T12:29:21;98366.06;;;15.18;29.89
9740;BME280;4909;42.680;26.324;2023-03-14T12:32:07;98364.75;;;15.51;27.52
9740;BME280;4909;42.680;26.324;2023-03-14T12:34:34;98355.63;;;15.41;26.82
9740;BME280;4909;42.680;26.324;2023-03-14T12:37:12;98356.91;;;15.48;27.24
9740;BME280;4909;42.680;26.324;2023-03-14T12:39:47;98349.47;;;15.13;28.05
9740;BME280;4909;42.680;26.324;2023-03-14T12:42:22;98324.56;;;15.26;27.96
9740;BME280;4909;42.680;26.324;2023-03-14T12:45:24;98338.72;;;15.40;27.38
9740;BME280;4909;42.680;26.324;2023-03-14T12:48:09;98333.66;;;14.84;26.63
9740;BME280;4909;42.680;26.324;2023-03-14T12:50:47;98321.66;;;15.03;26.96
9740;BME280;4909;42.680;26.324;2023-03-14T12:53:44;98323.06;;;15.21;25.58
9740;BME280;4909;42.680;26.324;2023-03-14T12:56:26;98318.34;;;15.12;26.01
9740;BME280;4909;42.680;26.324;2023-03-14T12:59:05;98293.53;;;14.98;26.38
9740;BME280;4909;42.680;26.324;2023-03-14T13:01:46;98311.75;;;15.18;27.45
9740;BME280;4909;42.680;26.324;2023-03-14T13:04:13;98295.56;;;15.07;27.49
9740;BME280;4909;42.680;26.324;2023-03-14T13:06:49;98281.06;;;14.45;28.58
9740;BME280;4909;42.680;26.324;2023-03-14T13:12:37;98289.72;;;14.75;26.78
9740;BME280;4909;42.680;26.324;2023-03-14T13:15:14;98301.19;;;14.50;27.68
9740;BME280;4909;42.680;26.324;2023-03-14T13:17:44;98294.56;;;14.15;27.93
9740;BME280;4909;42.680;26.324;2023-03-14T13:20:15;98289.19;;;14.29;27.58
9740;BME280;4909;42.680;26.324;2023-03-14T13:22:47;98281.66;;;14.62;26.93
9740;BME280;4909;42.680;26.324;2023-03-14T13:25:14;98275.97;;;14.81;27.18
9740;BME280;4909;42.680;26.324;2023-03-14T13:27:43;98277.03;;;14.91;26.61
9740;BME280;4909;42.680;26.324;2023-03-14T13:30:16;98263.50;;;14.55;26.96